createdAt,value
2018-08-10T00:00:07.117Z,2.10
2018-08-10T00:02:35.543Z,2.70
2018-08-10T00:05:04.428Z,2.97
2018-08-10T00:07:32.499Z,2.63
2018-08-10T00:10:00.823Z,2.47
2018-08-10T00:12:29.050Z,2.33
2018-08-10T00:14:57.345Z,2.80
2018-08-10T00:17:25.501Z,2.40
2018-08-10T00:19:53.683Z,2.37
2018-08-10T00:22:21.870Z,2.50
2018-08-10T00:24:50.013Z,2.17
2018-08-10T00:27:18.199Z,2.03
2018-08-10T00:29:46.412Z,2.80
2018-08-10T00:32:14.581Z,2.17
2018-08-10T00:34:42.652Z,2.50
2018-08-10T00:37:10.747Z,2.20
2018-08-10T00:39:38.952Z,1.80
2018-08-10T00:42:07.072Z,2.13
2018-08-10T00:44:35.201Z,2.03
2018-08-10T00:47:03.308Z,2.20
2018-08-10T00:49:31.545Z,2.20
2018-08-10T00:51:59.627Z,2.20
2018-08-10T00:54:27.738Z,1.70
2018-08-10T00:56:55.879Z,1.97
2018-08-10T00:59:24.038Z,2.23
2018-08-10T01:01:52.134Z,1.93
2018-08-10T01:04:20.279Z,1.90
2018-08-10T01:06:48.430Z,1.80
2018-08-10T01:09:16.732Z,2.10
2018-08-10T01:11:45.052Z,1.83
2018-08-10T01:14:13.133Z,1.80
2018-08-10T01:16:41.313Z,2.00
2018-08-10T01:19:09.560Z,1.50
2018-08-10T01:21:37.628Z,1.73
2018-08-10T01:24:05.782Z,1.70
2018-08-10T01:26:33.882Z,1.80
2018-08-10T01:29:02.044Z,1.50
2018-08-10T01:31:30.145Z,1.40
2018-08-10T01:33:58.328Z,1.50
2018-08-10T01:36:26.425Z,1.57
2018-08-10T01:38:54.564Z,1.60
2018-08-10T01:41:22.704Z,1.50
2018-08-10T01:43:50.880Z,1.20
2018-08-10T01:46:19.099Z,1.50
2018-08-10T01:48:47.241Z,1.40
2018-08-10T01:51:15.312Z,1.20
2018-08-10T01:53:43.377Z,1.60
2018-08-10T01:56:11.417Z,1.20
2018-08-10T01:58:39.519Z,1.10
2018-08-10T02:01:07.587Z,1.23
2018-08-10T02:03:35.673Z,1.20
2018-08-10T02:06:03.732Z,1.37
2018-08-10T02:08:31.801Z,1.03
2018-08-10T02:10:59.864Z,1.20
2018-08-10T02:13:27.920Z,1.20
2018-08-10T02:15:55.991Z,1.10
2018-08-10T02:18:24.083Z,0.97
2018-08-10T02:20:52.209Z,1.10
2018-08-10T02:23:20.307Z,1.00
2018-08-10T02:25:48.482Z,0.90
2018-08-10T02:28:16.585Z,0.90
2018-08-10T02:30:44.682Z,0.90
2018-08-10T02:33:12.796Z,1.20
2018-08-10T02:35:40.884Z,1.00
2018-08-10T02:38:08.948Z,1.03
2018-08-10T02:40:37.016Z,0.73
2018-08-10T02:43:05.127Z,1.00
2018-08-10T02:45:33.283Z,0.83
2018-08-10T02:48:01.442Z,0.90
2018-08-10T02:50:29.506Z,0.80
2018-08-10T02:52:57.573Z,1.00
2018-08-10T02:55:25.659Z,0.90
2018-08-10T02:57:53.744Z,0.90
2018-08-10T03:00:21.870Z,0.90
2018-08-10T03:02:50.045Z,1.03
2018-08-10T03:05:18.179Z,0.90
2018-08-10T03:07:46.293Z,0.80
2018-08-10T03:10:14.552Z,1.10
2018-08-10T03:12:42.648Z,0.77
2018-08-10T03:15:12.183Z,0.80
2018-08-10T03:17:40.393Z,0.80
2018-08-10T03:20:08.761Z,0.80
2018-08-10T03:22:36.838Z,0.70
2018-08-10T03:25:05.345Z,0.80
2018-08-10T03:27:33.446Z,0.80
2018-08-10T03:30:01.540Z,0.60
2018-08-10T03:32:29.620Z,0.77
2018-08-10T03:34:57.692Z,0.60
2018-08-10T03:37:25.775Z,0.70
2018-08-10T03:39:53.869Z,0.70
2018-08-10T03:42:22.017Z,0.77
2018-08-10T03:44:50.193Z,0.70
2018-08-10T03:47:18.372Z,0.70
2018-08-10T03:49:46.534Z,0.80
2018-08-10T03:52:14.618Z,0.87
2018-08-10T03:54:42.749Z,0.70
2018-08-10T03:57:10.823Z,0.60
2018-08-10T03:59:38.929Z,0.70
2018-08-10T04:02:06.988Z,0.80
2018-08-10T04:04:35.088Z,0.70
2018-08-10T04:07:03.172Z,0.60
2018-08-10T04:09:31.264Z,0.70
2018-08-10T04:11:59.337Z,0.70
2018-08-10T04:14:27.440Z,0.60
2018-08-10T04:16:55.539Z,0.50
2018-08-10T04:19:23.628Z,0.70
2018-08-10T04:21:51.788Z,1.00
2018-08-10T04:24:19.944Z,0.83
2018-08-10T04:26:48.078Z,0.60
2018-08-10T04:29:16.424Z,0.80
2018-08-10T04:31:44.500Z,0.50
2018-08-10T04:34:12.568Z,0.63
2018-08-10T04:36:40.804Z,0.70
2018-08-10T04:39:10.934Z,0.70
2018-08-10T04:41:39.024Z,0.87
2018-08-10T04:44:07.140Z,0.60
2018-08-10T04:46:35.212Z,0.77
2018-08-10T04:49:03.298Z,0.80
2018-08-10T04:51:31.489Z,0.70
2018-08-10T04:53:59.809Z,0.90
2018-08-10T04:56:27.860Z,0.80
2018-08-10T04:58:55.945Z,0.87
2018-08-10T05:01:24.000Z,1.23
2018-08-10T05:03:52.140Z,1.00
2018-08-10T05:06:20.339Z,1.17
2018-08-10T05:08:48.504Z,1.13
2018-08-10T05:11:16.591Z,1.00
2018-08-10T05:13:44.864Z,1.00
2018-08-10T05:16:13.017Z,0.83
2018-08-10T05:18:41.316Z,0.87
2018-08-10T05:21:09.384Z,0.90
2018-08-10T05:23:37.463Z,0.97
2018-08-10T05:26:05.752Z,1.00
2018-08-10T05:28:33.873Z,1.10
2018-08-10T05:31:01.930Z,0.80
2018-08-10T05:33:30.718Z,0.80
2018-08-10T05:35:58.784Z,0.77
2018-08-10T05:38:26.912Z,1.07
2018-08-10T05:40:55.020Z,1.10
2018-08-10T05:43:23.144Z,0.70
2018-08-10T05:45:51.308Z,0.90
2018-08-10T05:48:19.451Z,1.00
2018-08-10T05:50:47.620Z,0.97
2018-08-10T05:53:15.739Z,0.80
2018-08-10T05:55:43.856Z,0.93
2018-08-10T05:58:11.924Z,0.93
2018-08-10T06:00:40.077Z,1.00
2018-08-10T06:03:08.075Z,0.90
2018-08-10T06:05:36.200Z,1.00
2018-08-10T06:08:04.313Z,1.00
2018-08-10T06:10:32.389Z,1.00
2018-08-10T06:13:00.530Z,1.10
2018-08-10T06:15:28.695Z,1.17
2018-08-10T06:17:56.727Z,1.00
2018-08-10T06:20:24.824Z,0.90
2018-08-10T06:22:52.970Z,1.03
2018-08-10T06:25:21.125Z,1.10
2018-08-10T06:27:49.339Z,1.00
2018-08-10T06:30:17.484Z,1.03
2018-08-10T06:32:45.610Z,0.97
2018-08-10T06:35:13.693Z,1.10
2018-08-10T06:37:41.776Z,1.00
2018-08-10T06:40:09.848Z,0.90
2018-08-10T06:42:37.937Z,0.93
2018-08-10T06:45:06.488Z,1.10
2018-08-10T06:47:34.444Z,1.20
2018-08-10T06:50:02.531Z,1.30
2018-08-10T06:52:30.589Z,1.07
2018-08-10T06:54:58.675Z,0.90
2018-08-10T06:57:26.776Z,1.10
2018-08-10T06:59:54.989Z,1.10
2018-08-10T07:02:23.336Z,0.83
2018-08-10T07:04:51.599Z,1.00
2018-08-10T07:07:19.833Z,0.90
2018-08-10T07:09:48.049Z,0.90
2018-08-10T07:12:16.215Z,0.80
2018-08-10T07:14:44.582Z,1.00
2018-08-10T07:17:12.637Z,1.00
2018-08-10T07:19:40.732Z,1.10
2018-08-10T07:22:08.820Z,0.80
2018-08-10T07:24:37.001Z,1.07
2018-08-10T07:27:05.210Z,0.80
2018-08-10T07:29:33.316Z,0.90
2018-08-10T07:32:01.456Z,1.00
2018-08-10T07:34:29.532Z,0.83
2018-08-10T07:36:57.604Z,0.90
2018-08-10T07:39:25.744Z,0.80
2018-08-10T07:41:53.887Z,0.80
2018-08-10T07:44:22.127Z,1.00
2018-08-10T07:46:50.252Z,1.00
2018-08-10T07:49:18.401Z,1.03
2018-08-10T07:51:46.707Z,0.83
2018-08-10T07:54:14.836Z,0.93
2018-08-10T07:56:42.918Z,1.10
2018-08-10T07:59:11.105Z,1.03
2018-08-10T08:01:39.268Z,1.10
2018-08-10T08:04:08.087Z,1.03
2018-08-10T08:06:36.369Z,1.17
2018-08-10T08:09:07.271Z,0.77
2018-08-10T08:11:35.452Z,1.30
2018-08-10T08:14:03.913Z,1.03
2018-08-10T08:16:32.064Z,1.00
2018-08-10T08:19:00.117Z,1.10
2018-08-10T08:21:28.217Z,1.13
2018-08-10T08:23:56.373Z,1.33
2018-08-10T08:26:24.472Z,1.10
2018-08-10T08:28:52.600Z,0.90
2018-08-10T08:31:20.748Z,1.13
2018-08-10T08:34:00.405Z,1.40
2018-08-10T08:36:28.488Z,1.23
2018-08-10T08:41:06.898Z,1.40
2018-08-10T08:45:53.491Z,1.37
2018-08-10T08:48:21.913Z,0.90
2018-08-10T08:50:51.576Z,1.20
2018-08-10T08:53:19.728Z,1.00
2018-08-10T08:55:49.593Z,1.17
2018-08-10T08:58:17.860Z,1.20
2018-08-10T09:00:46.190Z,1.40
2018-08-10T09:03:26.623Z,1.20
2018-08-10T09:05:55.223Z,1.17
2018-08-10T09:08:23.384Z,1.13
2018-08-10T09:10:52.571Z,1.30
2018-08-10T09:13:20.718Z,0.97
2018-08-10T09:15:48.973Z,1.30
2018-08-10T09:18:17.165Z,1.10
2018-08-10T09:20:45.272Z,1.27
2018-08-10T09:23:13.425Z,1.30
2018-08-10T09:25:41.512Z,1.00
2018-08-10T09:28:09.643Z,1.27
2018-08-10T09:30:37.714Z,1.13
2018-08-10T09:33:06.034Z,1.00
2018-08-10T09:35:34.139Z,1.07
2018-08-10T09:38:02.325Z,1.03
2018-08-10T09:40:30.416Z,1.10
2018-08-10T09:42:58.517Z,1.10
2018-08-10T09:45:26.711Z,1.10
2018-08-10T09:47:54.848Z,1.30
2018-08-10T09:50:29.813Z,1.00
2018-08-10T09:53:00.704Z,1.20
2018-08-10T09:55:44.389Z,1.10
2018-08-10T09:58:16.637Z,1.10
2018-08-10T10:00:50.322Z,0.90
2018-08-10T10:03:19.803Z,0.93
2018-08-10T10:05:48.851Z,0.93
2018-08-10T10:08:17.514Z,1.00
2018-08-10T10:10:45.678Z,0.90
2018-08-10T10:13:13.750Z,1.00
2018-08-10T10:15:42.283Z,1.10
2018-08-10T10:18:11.560Z,1.13
2018-08-10T10:20:39.681Z,1.20
2018-08-10T10:23:07.912Z,0.90
2018-08-10T10:25:36.242Z,1.00
2018-08-10T10:28:04.344Z,1.10
2018-08-10T10:30:32.457Z,0.87
2018-08-10T10:33:00.579Z,1.23
2018-08-10T10:35:28.805Z,1.10
2018-08-10T10:37:56.924Z,0.90
2018-08-10T10:40:25.046Z,1.10
2018-08-10T10:42:53.280Z,1.10
2018-08-10T10:45:21.363Z,1.00
2018-08-10T10:47:49.576Z,1.03
2018-08-10T10:50:18.517Z,1.30
2018-08-10T10:52:46.723Z,0.80
2018-08-10T10:55:15.008Z,1.17
2018-08-10T10:57:43.662Z,1.20
2018-08-10T11:00:14.892Z,1.00
2018-08-10T11:02:42.964Z,1.10
2018-08-10T11:05:11.037Z,1.20
2018-08-10T11:07:39.203Z,1.10
2018-08-10T11:10:08.805Z,1.10
2018-08-10T11:12:37.405Z,1.00
2018-08-10T11:15:05.825Z,1.10
2018-08-10T11:17:34.113Z,1.00
2018-08-10T11:20:02.330Z,1.17
2018-08-10T11:22:30.377Z,1.30
2018-08-10T11:24:58.568Z,1.10
2018-08-10T11:27:26.655Z,1.20
2018-08-10T11:29:54.725Z,0.90
2018-08-10T11:32:22.842Z,1.10
2018-08-10T11:34:51.047Z,1.10
2018-08-10T11:37:19.228Z,1.27
2018-08-10T11:39:47.400Z,1.30
2018-08-10T11:42:15.576Z,1.10
2018-08-10T11:44:43.752Z,1.20
2018-08-10T11:47:11.840Z,1.10
2018-08-10T11:49:39.993Z,1.10
2018-08-10T11:52:08.185Z,1.23
2018-08-10T11:54:36.247Z,1.20
2018-08-10T11:57:04.401Z,1.37
2018-08-10T12:00:49.724Z,3.73
2018-08-10T12:03:17.908Z,1.93
2018-08-10T12:05:46.076Z,1.90
2018-08-10T12:08:14.097Z,1.50
2018-08-10T12:10:42.219Z,1.47
2018-08-10T12:13:10.296Z,1.40
2018-08-10T12:15:38.385Z,1.50
2018-08-10T12:18:06.536Z,1.40
2018-08-10T12:20:34.608Z,1.77
2018-08-10T12:23:02.707Z,1.57
2018-08-10T12:25:30.780Z,1.50
2018-08-10T12:27:58.872Z,1.40
2018-08-10T12:30:27.049Z,1.57
2018-08-10T12:32:55.200Z,1.60
2018-08-10T12:35:23.358Z,1.70
2018-08-10T12:37:51.453Z,1.60
2018-08-10T12:40:19.591Z,1.60
2018-08-10T12:42:47.755Z,1.77
2018-08-10T12:45:15.888Z,1.50
2018-08-10T12:47:44.132Z,6.03
2018-08-10T12:50:12.081Z,20.83
2018-08-10T12:52:40.493Z,8.50
2018-08-10T12:55:08.742Z,5.63
2018-08-10T12:57:36.932Z,4.10
2018-08-10T13:00:07.400Z,3.23
2018-08-10T13:02:35.622Z,3.40
2018-08-10T13:05:03.768Z,2.20
2018-08-10T13:07:31.933Z,2.10
2018-08-10T13:09:59.973Z,2.07
2018-08-10T13:12:28.208Z,1.87
2018-08-10T13:14:56.301Z,1.60
2018-08-10T13:17:24.375Z,1.47
2018-08-10T13:19:52.468Z,1.57
2018-08-10T13:22:20.624Z,1.23
2018-08-10T13:24:48.791Z,1.30
2018-08-10T13:27:17.041Z,1.40
2018-08-10T13:29:45.748Z,1.63
2018-08-10T13:32:13.865Z,1.83
2018-08-10T13:34:42.076Z,1.50
2018-08-10T13:37:10.164Z,1.73
2018-08-10T13:39:38.248Z,1.60
2018-08-10T13:42:06.339Z,1.57
2018-08-10T13:44:34.521Z,1.30
2018-08-10T13:47:02.570Z,1.30
2018-08-10T13:49:30.793Z,1.30
2018-08-10T13:51:58.860Z,1.47
2018-08-10T13:54:27.096Z,1.30
2018-08-10T13:56:55.152Z,1.13
2018-08-10T13:59:23.256Z,1.50
2018-08-10T14:01:51.409Z,1.20
2018-08-10T14:04:19.741Z,1.40
2018-08-10T14:06:48.100Z,1.30
2018-08-10T14:09:16.220Z,1.77
2018-08-10T14:11:44.420Z,1.57
2018-08-10T14:14:12.482Z,1.40
2018-08-10T14:16:40.535Z,1.60
2018-08-10T14:19:08.592Z,1.60
2018-08-10T14:21:36.704Z,1.63
2018-08-10T14:24:04.973Z,1.30
2018-08-10T14:26:33.019Z,1.73
2018-08-10T14:29:01.108Z,1.50
2018-08-10T14:31:29.366Z,1.40
2018-08-10T14:33:57.465Z,1.90
2018-08-10T14:36:25.604Z,1.90
2018-08-10T14:38:53.844Z,1.60
2018-08-10T14:41:22.268Z,1.40
2018-08-10T14:43:51.422Z,1.20
2018-08-10T14:46:19.568Z,1.27
2018-08-10T14:48:47.721Z,1.60
2018-08-10T14:51:15.943Z,1.67
2018-08-10T14:53:44.227Z,3.83
2018-08-10T14:56:12.257Z,3.33
2018-08-10T14:58:40.353Z,2.40
2018-08-10T15:01:08.408Z,1.80
2018-08-10T15:03:36.507Z,1.80
2018-08-10T15:06:04.684Z,1.57
2018-08-10T15:08:32.769Z,1.83
2018-08-10T15:11:00.875Z,1.60
2018-08-10T15:13:29.000Z,1.73
2018-08-10T15:15:57.109Z,1.40
2018-08-10T15:18:25.234Z,1.70
2018-08-10T15:20:53.459Z,1.60
2018-08-10T15:23:21.576Z,1.90
2018-08-10T15:25:49.717Z,1.50
2018-08-10T15:28:18.052Z,1.43
2018-08-10T15:30:46.247Z,1.53
2018-08-10T15:33:14.324Z,1.50
2018-08-10T15:35:42.400Z,1.47
2018-08-10T15:38:10.509Z,1.67
2018-08-10T15:40:38.572Z,1.50
2018-08-10T15:43:06.661Z,1.40
2018-08-10T15:45:34.816Z,1.80
2018-08-10T15:48:02.894Z,1.40
2018-08-10T15:50:31.085Z,1.53
2018-08-10T15:52:59.128Z,1.83
2018-08-10T15:55:27.204Z,1.50
2018-08-10T15:57:55.754Z,1.40
2018-08-10T16:00:24.909Z,1.40
2018-08-10T16:02:53.066Z,1.50
2018-08-10T16:05:21.257Z,1.40
2018-08-10T16:07:49.367Z,1.20
2018-08-10T16:10:17.604Z,1.33
2018-08-10T16:12:45.796Z,1.53
2018-08-10T16:15:15.179Z,1.40
2018-08-10T16:17:43.324Z,1.20
2018-08-10T16:20:13.204Z,1.30
2018-08-10T16:22:41.324Z,1.40
2018-08-10T16:25:10.751Z,1.30
2018-08-10T16:27:39.176Z,1.40
2018-08-10T16:30:09.076Z,1.60
2018-08-10T16:32:37.469Z,1.63
2018-08-10T16:35:06.647Z,1.30
2018-08-10T16:37:34.795Z,1.83
2018-08-10T16:40:03.116Z,1.60
2018-08-10T16:42:31.187Z,1.73
2018-08-10T16:44:59.273Z,2.13
2018-08-10T16:47:27.473Z,1.80
2018-08-10T16:49:55.658Z,2.10
2018-08-10T16:52:23.768Z,1.90
2018-08-10T16:54:51.901Z,1.60
2018-08-10T16:57:20.068Z,1.73
2018-08-10T16:59:48.318Z,1.60
2018-08-10T17:02:16.517Z,1.53
2018-08-10T17:04:44.575Z,1.70
2018-08-10T17:07:12.721Z,1.50
2018-08-10T17:09:40.782Z,1.40
2018-08-10T17:12:09.275Z,1.73
2018-08-10T17:14:37.385Z,1.47
2018-08-10T17:17:05.508Z,1.53
2018-08-10T17:19:33.836Z,1.30
2018-08-10T17:22:01.912Z,1.67
2018-08-10T17:24:30.036Z,1.80
2018-08-10T17:26:58.108Z,1.43
2018-08-10T17:29:26.192Z,1.37
2018-08-10T17:31:54.295Z,1.40
2018-08-10T17:34:22.684Z,1.37
2018-08-10T17:36:50.866Z,1.40
2018-08-10T17:39:19.045Z,1.63
2018-08-10T17:41:47.101Z,1.27
2018-08-10T17:44:15.179Z,1.60
2018-08-10T17:46:43.318Z,1.30
2018-08-10T17:49:11.360Z,1.43
2018-08-10T17:51:39.464Z,1.73
2018-08-10T17:54:07.598Z,1.53
2018-08-10T17:56:35.755Z,1.50
2018-08-10T17:59:03.932Z,1.37
2018-08-10T18:01:31.983Z,1.63
2018-08-10T18:04:00.098Z,1.53
2018-08-10T18:06:28.170Z,1.30
2018-08-10T18:08:56.297Z,1.30
2018-08-10T18:11:24.427Z,1.50
2018-08-10T18:13:52.582Z,1.60
2018-08-10T18:16:20.701Z,1.40
2018-08-10T18:18:48.944Z,1.40
2018-08-10T18:21:17.185Z,1.50
2018-08-10T18:23:45.252Z,1.63
2018-08-10T18:26:13.344Z,1.50
2018-08-10T18:28:41.412Z,1.43
2018-08-10T18:31:09.537Z,1.53
2018-08-10T18:33:37.627Z,1.43
2018-08-10T18:36:05.717Z,1.40
2018-08-10T18:38:33.842Z,1.40
2018-08-10T18:41:02.378Z,1.50
2018-08-10T18:43:30.492Z,1.43
2018-08-10T18:45:58.632Z,1.50
2018-08-10T18:48:26.724Z,1.40
2018-08-10T18:50:54.848Z,1.53
2018-08-10T18:53:22.955Z,1.40
2018-08-10T18:55:51.036Z,1.23
2018-08-10T18:58:19.129Z,1.73
2018-08-10T19:00:47.366Z,1.60
2018-08-10T19:03:15.454Z,1.50
2018-08-10T19:05:43.544Z,1.40
2018-08-10T19:08:11.660Z,1.50
2018-08-10T19:10:39.792Z,1.53
2018-08-10T19:13:07.933Z,1.80
2018-08-10T19:15:36.017Z,1.63
2018-08-10T19:18:05.244Z,1.60
2018-08-10T19:20:33.320Z,1.70
2018-08-10T19:23:01.411Z,1.60
2018-08-10T19:25:29.502Z,1.60
2018-08-10T19:27:57.604Z,1.60
2018-08-10T19:30:25.718Z,1.77
2018-08-10T19:32:53.884Z,1.37
2018-08-10T19:35:21.992Z,1.53
2018-08-10T19:37:50.148Z,1.50
2018-08-10T19:40:19.356Z,1.67
2018-08-10T19:42:47.585Z,1.70
2018-08-10T19:45:16.360Z,1.70
2018-08-10T19:47:44.698Z,1.80
2018-08-10T19:50:14.164Z,1.30
2018-08-10T19:52:42.276Z,1.73
2018-08-10T19:55:11.876Z,1.80
2018-08-10T19:57:40.249Z,1.60
2018-08-10T20:00:10.252Z,1.63
2018-08-10T20:02:38.383Z,1.80
2018-08-10T20:05:06.984Z,1.90
2018-08-10T20:07:35.180Z,1.70
2018-08-10T20:10:03.565Z,1.70
2018-08-10T20:12:31.652Z,1.63
2018-08-10T20:14:59.742Z,1.57
2018-08-10T20:17:27.841Z,1.70
2018-08-10T20:19:55.924Z,1.63
2018-08-10T20:22:24.142Z,1.60
2018-08-10T20:24:52.290Z,1.77
2018-08-10T20:27:20.388Z,1.70
2018-08-10T20:29:48.564Z,2.00
2018-08-10T20:32:16.807Z,1.70
2018-08-10T20:34:44.933Z,2.10
2018-08-10T20:37:13.047Z,2.00
2018-08-10T20:39:41.154Z,1.70
2018-08-10T20:42:09.312Z,1.60
2018-08-10T20:44:37.445Z,1.70
2018-08-10T20:47:05.569Z,1.87
2018-08-10T20:49:33.656Z,1.80
2018-08-10T20:52:01.782Z,1.67
2018-08-10T20:54:29.877Z,1.90
2018-08-10T20:56:58.077Z,1.77
2018-08-10T20:59:26.144Z,1.63
2018-08-10T21:01:54.284Z,1.80
2018-08-10T21:04:22.471Z,1.57
2018-08-10T21:06:50.620Z,1.80
2018-08-10T21:09:18.717Z,1.80
2018-08-10T21:11:46.804Z,1.80
2018-08-10T21:14:14.881Z,1.90
2018-08-10T21:16:42.956Z,1.77
2018-08-10T21:19:11.073Z,1.93
2018-08-10T21:21:39.107Z,1.80
2018-08-10T21:24:07.185Z,1.70
2018-08-10T21:26:35.389Z,1.97
2018-08-10T21:29:03.432Z,2.00
2018-08-10T21:31:31.536Z,1.97
2018-08-10T21:33:59.635Z,1.50
2018-08-10T21:36:27.785Z,1.60
2018-08-10T21:38:55.852Z,1.70
2018-08-10T21:41:24.047Z,1.63
2018-08-10T21:43:52.137Z,1.77
2018-08-10T21:46:20.273Z,1.83
2018-08-10T21:48:48.413Z,1.73
2018-08-10T21:51:16.558Z,2.00
2018-08-10T21:53:44.848Z,2.10
2018-08-10T21:56:12.908Z,1.97
2018-08-10T21:58:40.973Z,2.27
2018-08-10T22:01:09.136Z,2.40
2018-08-10T22:03:37.267Z,2.30
2018-08-10T22:06:05.596Z,2.60
2018-08-10T22:08:33.700Z,2.00
2018-08-10T22:11:01.924Z,2.43
2018-08-10T22:13:35.472Z,3.07
2018-08-10T22:16:09.045Z,2.77
2018-08-10T22:18:42.591Z,2.77
2018-08-10T22:21:10.748Z,2.70
2018-08-10T22:23:38.939Z,3.00
2018-08-10T22:26:07.056Z,3.07
2018-08-10T22:28:35.192Z,2.90
2018-08-10T22:31:03.286Z,2.40
2018-08-10T22:33:31.502Z,2.83
2018-08-10T22:35:59.588Z,2.70
2018-08-10T22:38:27.665Z,2.43
2018-08-10T22:40:55.799Z,2.73
2018-08-10T22:43:23.908Z,2.40
2018-08-10T22:45:52.060Z,2.50
2018-08-10T22:48:20.190Z,2.47
2018-08-10T22:50:48.377Z,2.50
2018-08-10T22:53:16.580Z,2.50
2018-08-10T22:55:44.719Z,2.67
2018-08-10T22:58:12.774Z,2.23
2018-08-10T23:00:41.387Z,2.40
2018-08-10T23:03:09.655Z,2.50
2018-08-10T23:05:37.747Z,2.40
2018-08-10T23:08:05.821Z,2.37
2018-08-10T23:10:33.892Z,2.10
2018-08-10T23:13:01.979Z,2.00
2018-08-10T23:15:30.061Z,2.07
2018-08-10T23:17:58.415Z,2.10
2018-08-10T23:20:26.512Z,2.10
2018-08-10T23:22:54.623Z,2.20
2018-08-10T23:25:23.006Z,1.63
2018-08-10T23:27:51.112Z,1.80
2018-08-10T23:30:19.208Z,2.00
2018-08-10T23:32:47.370Z,1.93
2018-08-10T23:35:15.436Z,1.77
2018-08-10T23:37:43.516Z,2.00
2018-08-10T23:40:15.093Z,2.10
2018-08-10T23:42:44.051Z,1.97
2018-08-10T23:45:13.092Z,1.97
2018-08-10T23:47:42.012Z,1.87
2018-08-10T23:50:12.865Z,1.90
2018-08-10T23:52:41.339Z,1.90
2018-08-10T23:55:10.593Z,1.90
2018-08-10T23:57:39.659Z,2.10
